createdAt,value
2023-04-27T00:02:23.528Z,39.56
2023-04-27T00:04:51.856Z,39.58
2023-04-27T00:07:19.444Z,39.57
2023-04-27T00:09:47.238Z,39.59
2023-04-27T00:12:14.920Z,39.62
2023-04-27T00:14:42.369Z,39.64
2023-04-27T00:17:09.801Z,39.68
2023-04-27T00:19:37.718Z,39.73
2023-04-27T00:22:05.177Z,39.73
2023-04-27T00:24:32.592Z,39.73
2023-04-27T00:27:00.521Z,39.75
2023-04-27T00:29:27.937Z,39.74
2023-04-27T00:31:55.943Z,39.77
2023-04-27T00:34:23.643Z,39.82
2023-04-27T00:36:51.261Z,39.82
2023-04-27T00:39:20.613Z,39.84
2023-04-27T00:41:48.337Z,39.81
2023-04-27T00:44:23.540Z,39.83
2023-04-27T00:46:51.471Z,39.76
2023-04-27T00:49:22.417Z,39.70
2023-04-27T00:51:49.818Z,39.75
2023-04-27T00:54:19.617Z,39.79
2023-04-27T00:56:50.780Z,39.84
2023-04-27T00:59:19.061Z,39.82
2023-04-27T01:01:46.826Z,39.83
2023-04-27T01:04:14.525Z,39.85
2023-04-27T01:06:42.422Z,39.84
2023-04-27T01:09:11.043Z,39.85
2023-04-27T01:11:38.621Z,39.86
2023-04-27T01:14:06.800Z,39.89
2023-04-27T01:16:34.339Z,39.91
2023-04-27T01:19:02.704Z,39.88
2023-04-27T01:21:30.995Z,39.90
2023-04-27T01:23:59.139Z,39.88
2023-04-27T01:26:26.919Z,39.87
2023-04-27T01:28:54.682Z,39.87
2023-04-27T01:31:22.132Z,39.90
2023-04-27T01:33:49.572Z,39.93
2023-04-27T01:36:17.303Z,39.99
2023-04-27T01:38:44.710Z,39.98
2023-04-27T01:41:13.704Z,39.98
2023-04-27T01:43:43.748Z,40.01
2023-04-27T01:46:12.503Z,40.07
2023-04-27T01:48:42.877Z,40.09
2023-04-27T01:51:11.418Z,40.09
2023-04-27T01:53:38.851Z,39.89
2023-04-27T01:56:06.894Z,40.02
2023-04-27T01:58:34.370Z,40.08
2023-04-27T02:01:01.821Z,40.05
2023-04-27T02:03:29.760Z,40.07
2023-04-27T02:05:57.300Z,40.09
2023-04-27T02:08:24.728Z,40.15
2023-04-27T02:10:52.564Z,40.21
2023-04-27T02:13:19.981Z,40.21
2023-04-27T02:15:47.513Z,40.18
2023-04-27T02:18:16.096Z,40.17
2023-04-27T02:20:43.500Z,40.14
2023-04-27T02:23:11.645Z,40.15
2023-04-27T02:25:42.880Z,40.21
2023-04-27T02:28:10.476Z,40.21
2023-04-27T02:30:38.629Z,40.21
2023-04-27T02:33:06.310Z,40.20
2023-04-27T02:35:33.782Z,40.20
2023-04-27T02:38:01.625Z,40.22
2023-04-27T02:40:29.019Z,40.23
2023-04-27T02:42:58.040Z,40.24
2023-04-27T02:45:25.541Z,40.24
2023-04-27T02:47:53.009Z,40.24
2023-04-27T02:50:20.818Z,40.25
2023-04-27T02:52:48.284Z,40.25
2023-04-27T02:55:16.488Z,40.25
2023-04-27T02:57:44.371Z,40.26
2023-04-27T03:00:13.094Z,40.30
2023-04-27T03:02:40.773Z,40.31
2023-04-27T03:05:08.888Z,40.31
2023-04-27T03:07:36.448Z,40.33
2023-04-27T03:10:04.890Z,40.36
2023-04-27T03:12:32.576Z,40.35
2023-04-27T03:15:00.972Z,40.36
2023-04-27T03:17:28.525Z,40.37
2023-04-27T03:19:56.412Z,40.36
2023-04-27T03:22:24.623Z,40.38
2023-04-27T03:24:52.002Z,40.42
2023-04-27T03:27:19.837Z,40.44
2023-04-27T03:29:47.319Z,40.43
2023-04-27T03:32:15.736Z,40.43
2023-04-27T03:34:43.490Z,40.42
2023-04-27T03:37:10.887Z,40.41
2023-04-27T03:39:38.364Z,40.44
2023-04-27T03:42:06.174Z,40.48
2023-04-27T03:44:34.284Z,40.49
2023-04-27T03:47:02.461Z,40.52
2023-04-27T03:49:30.612Z,40.52
2023-04-27T03:51:58.187Z,40.53
2023-04-27T03:54:25.804Z,40.52
2023-04-27T03:56:53.498Z,40.53
2023-04-27T03:59:21.264Z,40.53
2023-04-27T04:01:49.324Z,40.52
2023-04-27T04:04:17.131Z,40.44
2023-04-27T04:06:44.732Z,40.51
2023-04-27T04:09:12.996Z,40.42
2023-04-27T04:11:40.980Z,39.93
2023-04-27T04:14:09.735Z,39.68
2023-04-27T04:16:37.179Z,39.53
2023-04-27T04:19:04.976Z,39.49
2023-04-27T04:21:32.502Z,39.46
2023-04-27T04:23:59.911Z,39.40
2023-04-27T04:26:27.809Z,39.38
2023-04-27T04:28:57.157Z,39.33
2023-04-27T04:31:24.745Z,39.32
2023-04-27T04:33:52.774Z,39.25
2023-04-27T04:36:21.388Z,39.21
2023-04-27T04:38:51.576Z,39.18
2023-04-27T04:41:19.362Z,39.14
2023-04-27T04:43:49.406Z,39.12
2023-04-27T04:46:17.289Z,39.10
2023-04-27T04:48:45.010Z,39.08
2023-04-27T04:51:12.711Z,39.06
2023-04-27T04:53:40.142Z,39.03
2023-04-27T04:56:14.194Z,39.00
2023-04-27T04:58:41.608Z,38.99
2023-04-27T05:01:09.996Z,38.97
2023-04-27T05:03:37.706Z,38.97
2023-04-27T05:06:05.532Z,38.95
2023-04-27T05:08:33.211Z,38.92
2023-04-27T05:11:00.718Z,38.91
2023-04-27T05:13:28.281Z,38.88
2023-04-27T05:15:55.976Z,38.89
2023-04-27T05:18:23.469Z,38.88
2023-04-27T05:20:50.912Z,38.91
2023-04-27T05:23:18.597Z,38.93
2023-04-27T05:25:46.145Z,38.92
2023-04-27T05:28:13.513Z,38.87
2023-04-27T05:30:42.565Z,38.86
2023-04-27T05:33:10.136Z,38.86
2023-04-27T05:35:37.593Z,38.86
2023-04-27T05:38:05.299Z,38.85
2023-04-27T05:40:32.723Z,38.85
2023-04-27T05:43:03.356Z,38.84
2023-04-27T05:45:31.041Z,38.85
2023-04-27T05:47:58.576Z,38.84
2023-04-27T05:50:26.092Z,38.84
2023-04-27T05:52:53.780Z,38.85
2023-04-27T05:55:21.708Z,38.87
2023-04-27T05:57:54.504Z,38.86
2023-04-27T06:00:32.226Z,38.84
2023-04-27T06:03:00.004Z,38.83
2023-04-27T06:05:28.094Z,38.84
2023-04-27T06:07:55.660Z,38.87
2023-04-27T06:10:23.330Z,38.87
2023-04-27T06:12:50.816Z,38.88
2023-04-27T06:15:18.333Z,38.86
2023-04-27T06:17:46.127Z,38.82
2023-04-27T06:20:13.652Z,38.75
2023-04-27T06:22:41.102Z,38.63
2023-04-27T06:25:08.855Z,38.55
2023-04-27T06:27:36.364Z,38.48
2023-04-27T06:30:05.035Z,38.26
2023-04-27T06:32:33.246Z,38.05
2023-04-27T06:35:00.689Z,37.82
2023-04-27T06:37:28.128Z,37.72
2023-04-27T06:39:56.254Z,37.55
2023-04-27T06:42:23.722Z,37.37
2023-04-27T06:44:54.816Z,37.21
2023-04-27T06:47:22.874Z,37.09
2023-04-27T06:49:50.898Z,36.86
2023-04-27T06:52:18.323Z,36.80
2023-04-27T06:54:46.117Z,36.73
2023-04-27T06:57:13.639Z,36.59
2023-04-27T06:59:41.074Z,36.51
2023-04-27T07:02:08.749Z,36.45
2023-04-27T07:04:38.084Z,36.35
2023-04-27T07:07:05.652Z,36.27
2023-04-27T07:09:33.559Z,36.16
2023-04-27T07:12:01.411Z,36.08
2023-04-27T07:14:28.801Z,36.00
2023-04-27T07:16:56.526Z,35.91
2023-04-27T07:19:23.954Z,35.85
2023-04-27T07:21:51.884Z,35.80
2023-04-27T07:24:20.467Z,35.73
2023-04-27T07:26:48.148Z,35.71
2023-04-27T07:29:26.602Z,35.56
2023-04-27T07:31:55.910Z,35.46
2023-04-27T07:34:23.997Z,35.28
2023-04-27T07:36:54.188Z,35.23
2023-04-27T07:39:22.446Z,35.19
2023-04-27T07:41:50.217Z,35.13
2023-04-27T07:44:18.723Z,35.07
2023-04-27T07:46:49.635Z,34.93
2023-04-27T07:49:17.086Z,34.90
2023-04-27T07:51:44.545Z,34.70
2023-04-27T07:54:12.344Z,34.64
2023-04-27T07:56:43.136Z,34.55
2023-04-27T07:59:10.737Z,34.48
2023-04-27T08:01:38.589Z,34.41
2023-04-27T08:04:06.762Z,34.30
2023-04-27T08:06:35.523Z,34.24
2023-04-27T08:09:04.359Z,34.14
2023-04-27T08:11:32.186Z,34.04
2023-04-27T08:13:59.634Z,34.02
2023-04-27T08:16:27.123Z,33.97
2023-04-27T08:18:54.939Z,33.93
2023-04-27T08:21:22.419Z,33.92
2023-04-27T08:23:49.950Z,33.83
2023-04-27T08:26:17.669Z,33.76
2023-04-27T08:28:45.143Z,33.76
2023-04-27T08:31:12.945Z,33.70
2023-04-27T08:33:40.691Z,33.58
2023-04-27T08:36:08.392Z,33.50
2023-04-27T08:38:35.987Z,33.41
2023-04-27T08:41:18.007Z,33.35
2023-04-27T08:43:51.342Z,33.23
2023-04-27T08:46:23.245Z,33.15
2023-04-27T08:48:51.174Z,33.17
2023-04-27T08:51:19.957Z,33.21
2023-04-27T08:53:51.840Z,33.12
2023-04-27T08:56:19.949Z,33.17
2023-04-27T08:58:47.394Z,33.09
2023-04-27T09:01:14.894Z,32.98
2023-04-27T09:03:43.062Z,32.93
2023-04-27T09:06:10.796Z,32.85
2023-04-27T09:08:45.044Z,32.88
2023-04-27T09:11:16.517Z,32.92
2023-04-27T09:13:45.277Z,32.94
2023-04-27T09:16:14.374Z,32.99
2023-04-27T09:18:43.633Z,33.05
2023-04-27T09:21:12.118Z,33.10
2023-04-27T09:23:44.552Z,33.18
2023-04-27T09:26:19.629Z,33.21
2023-04-27T09:28:48.363Z,33.21
2023-04-27T09:31:16.365Z,33.20
2023-04-27T09:33:44.150Z,33.19
2023-04-27T09:36:11.946Z,33.15
2023-04-27T09:38:39.383Z,33.12
2023-04-27T09:41:06.898Z,33.12
2023-04-27T09:43:34.680Z,33.10
2023-04-27T09:46:04.060Z,33.04
2023-04-27T09:48:31.638Z,33.13
2023-04-27T09:50:59.308Z,33.09
2023-04-27T09:53:43.841Z,33.09
2023-04-27T09:56:36.472Z,33.13
2023-04-27T09:59:28.706Z,33.19
2023-04-27T10:01:57.557Z,33.30
2023-04-27T10:04:32.843Z,33.36
2023-04-27T10:07:01.369Z,33.39
2023-04-27T10:09:53.738Z,33.35
2023-04-27T10:12:21.823Z,33.42
2023-04-27T10:14:49.930Z,33.42
2023-04-27T10:17:17.734Z,33.41
2023-04-27T10:20:05.291Z,33.37
2023-04-27T10:22:43.983Z,33.33
2023-04-27T10:25:14.515Z,33.32
2023-04-27T10:27:42.701Z,33.27
2023-04-27T10:30:11.460Z,33.22
2023-04-27T10:32:50.913Z,33.22
2023-04-27T10:35:19.087Z,33.14
2023-04-27T10:37:47.653Z,33.16
2023-04-27T10:40:17.388Z,33.23
2023-04-27T10:42:45.547Z,33.26
2023-04-27T10:45:15.844Z,33.17
2023-04-27T10:47:44.254Z,33.25
2023-04-27T10:50:13.572Z,33.29
2023-04-27T10:52:44.289Z,33.29
2023-04-27T10:55:19.690Z,33.32
2023-04-27T10:57:50.958Z,33.37
2023-04-27T11:00:28.601Z,33.43
2023-04-27T11:02:58.071Z,33.48
2023-04-27T11:05:30.011Z,32.30
2023-04-27T11:08:07.743Z,31.04
2023-04-27T11:10:35.959Z,31.55
2023-04-27T11:13:14.094Z,32.20
2023-04-27T11:16:01.994Z,32.42
2023-04-27T11:18:33.712Z,32.43
2023-04-27T11:21:13.233Z,32.43
2023-04-27T11:23:41.200Z,32.43
2023-04-27T11:26:12.829Z,32.49
2023-04-27T11:28:41.058Z,32.58
2023-04-27T11:31:08.906Z,32.62
2023-04-27T11:33:36.779Z,32.69
2023-04-27T11:36:04.462Z,32.72
2023-04-27T11:38:35.067Z,32.78
2023-04-27T11:41:06.413Z,32.84
2023-04-27T11:43:34.298Z,32.90
2023-04-27T11:46:06.018Z,32.96
2023-04-27T11:48:37.068Z,33.03
2023-04-27T11:51:04.761Z,33.05
2023-04-27T11:53:33.892Z,33.13
2023-04-27T11:56:02.642Z,33.19
2023-04-27T11:58:30.386Z,33.21
2023-04-27T12:00:58.085Z,33.27
2023-04-27T12:03:26.210Z,33.32
2023-04-27T12:05:54.275Z,33.33
2023-04-27T12:08:21.792Z,33.39
2023-04-27T12:10:49.625Z,33.44
2023-04-27T12:13:17.028Z,33.50
2023-04-27T12:15:44.425Z,33.53
2023-04-27T12:18:12.204Z,33.57
2023-04-27T12:20:39.880Z,33.62
2023-04-27T12:23:07.369Z,33.67
2023-04-27T12:25:35.032Z,33.72
2023-04-27T12:28:02.622Z,33.75
2023-04-27T12:30:30.162Z,33.78
2023-04-27T12:32:59.624Z,33.83
2023-04-27T12:35:27.313Z,33.90
2023-04-27T12:37:55.314Z,33.89
2023-04-27T12:40:23.321Z,33.96
2023-04-27T12:42:50.704Z,33.98
2023-04-27T12:45:18.137Z,34.02
2023-04-27T12:48:01.240Z,34.07
2023-04-27T12:50:33.372Z,34.08
2023-04-27T12:53:01.119Z,34.12
2023-04-27T12:55:33.176Z,34.15
2023-04-27T12:58:02.655Z,34.19
2023-04-27T13:00:30.221Z,34.23
2023-04-27T13:02:58.647Z,34.24
2023-04-27T13:05:26.504Z,34.30
2023-04-27T13:07:53.968Z,34.32
2023-04-27T13:10:21.374Z,34.33
2023-04-27T13:12:49.060Z,34.36
2023-04-27T13:15:16.474Z,34.39
2023-04-27T13:17:44.252Z,34.43
2023-04-27T13:20:12.343Z,34.44
2023-04-27T13:22:40.904Z,34.48
2023-04-27T13:25:09.682Z,34.49
2023-04-27T13:27:37.523Z,34.54
2023-04-27T13:30:05.481Z,34.55
2023-04-27T13:32:32.998Z,34.60
2023-04-27T13:35:00.978Z,34.62
2023-04-27T13:37:28.532Z,34.65
2023-04-27T20:03:53.463Z,31.80
2023-04-27T20:06:21.794Z,31.92
2023-04-27T20:08:49.412Z,31.95
2023-04-27T20:11:17.168Z,32.03
2023-04-27T20:13:44.955Z,32.10
2023-04-27T20:16:13.058Z,32.19
2023-04-27T20:18:40.599Z,32.28
2023-04-27T20:21:08.548Z,32.27
2023-04-27T20:23:35.980Z,32.16
2023-04-27T20:26:03.389Z,32.14
2023-04-27T20:28:31.401Z,32.10
2023-04-27T20:30:58.848Z,32.12
2023-04-27T20:33:26.364Z,32.15
2023-04-27T20:36:03.696Z,32.34
2023-04-27T20:38:34.136Z,32.49
2023-04-27T20:41:03.276Z,32.56
2023-04-27T20:43:31.509Z,32.63
2023-04-27T20:45:59.013Z,32.75
2023-04-27T20:48:28.542Z,32.82
2023-04-27T20:50:55.954Z,32.87
2023-04-27T20:53:23.464Z,32.94
2023-04-27T20:55:51.116Z,33.00
2023-04-27T20:58:18.628Z,33.05
2023-04-27T21:00:46.415Z,33.10
2023-04-27T21:03:14.297Z,33.15
2023-04-27T21:05:41.792Z,33.16
2023-04-27T21:08:09.511Z,33.21
2023-04-27T21:10:37.329Z,33.16
2023-04-27T21:13:04.832Z,33.05
2023-04-27T21:15:33.403Z,32.95
2023-04-27T21:18:01.157Z,33.08
2023-04-27T21:20:28.636Z,33.12
2023-04-27T21:22:56.451Z,33.30
2023-04-27T21:25:24.161Z,33.43
2023-04-27T21:27:51.618Z,33.50
2023-04-27T21:30:19.040Z,33.50
2023-04-27T21:32:46.808Z,33.57
2023-04-27T21:35:14.289Z,33.60
2023-04-27T21:37:41.868Z,33.59
2023-04-27T21:40:09.849Z,33.59
2023-04-27T21:42:37.267Z,33.45
2023-04-27T21:45:04.883Z,33.45
2023-04-27T21:47:32.663Z,33.47
2023-04-27T21:50:00.190Z,33.47
2023-04-27T21:52:27.579Z,33.52
2023-04-27T21:54:55.338Z,33.52
2023-04-27T21:57:22.736Z,33.61
2023-04-27T21:59:50.187Z,33.69
2023-04-27T22:02:17.916Z,33.65
2023-04-27T22:04:45.820Z,33.74
2023-04-27T22:07:13.313Z,33.77
2023-04-27T22:09:41.515Z,33.79
2023-04-27T22:12:09.229Z,33.81
2023-04-27T22:14:36.645Z,33.86
2023-04-27T22:17:04.036Z,34.00
2023-04-27T22:19:31.729Z,34.05
2023-04-27T22:21:59.128Z,34.12
2023-04-27T22:24:26.553Z,34.17
2023-04-27T22:26:54.258Z,34.23
2023-04-27T22:29:21.690Z,34.26
2023-04-27T22:31:49.147Z,34.32
2023-04-27T22:34:17.153Z,34.37
2023-04-27T22:36:44.721Z,34.40
2023-04-27T22:39:12.165Z,34.44
2023-04-27T22:41:39.869Z,34.49
2023-04-27T22:44:07.348Z,34.52
2023-04-27T22:46:34.887Z,34.55
2023-04-27T22:49:02.637Z,34.56
2023-04-27T22:51:30.132Z,34.63
2023-04-27T22:53:57.515Z,34.65
2023-04-27T22:56:25.168Z,34.66
2023-04-27T22:58:52.555Z,34.70
2023-04-27T23:01:19.955Z,34.73
2023-04-27T23:03:47.831Z,34.76
2023-04-27T23:06:15.340Z,34.79
2023-04-27T23:08:45.399Z,34.73
2023-04-27T23:11:13.896Z,34.75
2023-04-27T23:13:41.422Z,34.77
2023-04-27T23:16:09.916Z,34.85
2023-04-27T23:18:37.916Z,34.92
2023-04-27T23:21:05.354Z,34.98
2023-04-27T23:23:32.743Z,34.98
2023-04-27T23:26:00.851Z,35.00
2023-04-27T23:28:28.264Z,35.02
2023-04-27T23:30:55.686Z,35.06
2023-04-27T23:33:24.387Z,35.10
2023-04-27T23:35:51.908Z,35.12
2023-04-27T23:38:19.329Z,35.15
2023-04-27T23:40:47.020Z,35.17
2023-04-27T23:43:14.542Z,35.18
2023-04-27T23:45:41.959Z,35.23
2023-04-27T23:48:09.687Z,35.27
2023-04-27T23:50:37.109Z,35.28
2023-04-27T23:53:04.509Z,35.30
2023-04-27T23:55:34.782Z,35.34
2023-04-27T23:58:02.422Z,35.37
